createdAt,value
2019-05-21T00:00:28.604Z,77.23
2019-05-21T00:02:58.094Z,77.04
2019-05-21T00:05:27.672Z,76.76
2019-05-21T00:07:57.169Z,76.86
2019-05-21T00:10:26.678Z,76.39
2019-05-21T00:12:56.179Z,76.57
2019-05-21T00:15:25.684Z,76.37
2019-05-21T00:17:55.178Z,76.48
2019-05-21T00:20:24.685Z,76.81
2019-05-21T00:22:54.194Z,76.84
2019-05-21T00:25:23.700Z,76.54
2019-05-21T00:27:56.415Z,76.75
2019-05-21T00:31:04.116Z,76.41
2019-05-21T00:34:09.849Z,76.87
2019-05-21T00:37:19.692Z,77.56
2019-05-21T00:40:25.615Z,77.73
2019-05-21T00:42:55.254Z,78.10
2019-05-21T00:45:24.779Z,78.15
2019-05-21T00:47:54.278Z,78.19
2019-05-21T00:50:23.794Z,77.42
2019-05-21T00:52:53.310Z,78.79
2019-05-21T00:55:22.791Z,78.63
2019-05-21T00:57:52.301Z,78.69
2019-05-21T01:00:21.864Z,78.63
2019-05-21T01:02:51.374Z,78.76
2019-05-21T01:05:21.846Z,79.23
2019-05-21T01:07:51.353Z,79.39
2019-05-21T01:10:20.864Z,80.14
2019-05-21T01:12:50.342Z,80.01
2019-05-21T01:15:19.843Z,80.85
2019-05-21T01:17:49.360Z,79.47
2019-05-21T01:20:18.867Z,78.95
2019-05-21T01:22:48.387Z,78.54
2019-05-21T01:25:17.884Z,78.30
2019-05-21T01:27:47.395Z,77.25
2019-05-21T01:30:17.051Z,78.46
2019-05-21T01:32:46.583Z,80.26
2019-05-21T01:35:17.598Z,80.18
2019-05-21T01:37:47.234Z,79.54
2019-05-21T01:40:16.742Z,80.30
2019-05-21T01:42:46.245Z,80.03
2019-05-21T01:45:17.352Z,81.74
2019-05-21T01:47:46.862Z,80.61
2019-05-21T01:50:16.370Z,80.20
2019-05-21T01:52:45.873Z,80.58
2019-05-21T01:55:16.338Z,80.95
2019-05-21T01:57:45.835Z,80.66
2019-05-21T02:00:15.404Z,80.68
2019-05-21T02:02:44.914Z,80.53
2019-05-21T02:05:14.423Z,82.44
2019-05-21T02:07:43.973Z,81.95
2019-05-21T02:10:13.498Z,81.25
2019-05-21T02:12:43.016Z,80.57
2019-05-21T02:15:12.608Z,80.86
2019-05-21T02:17:42.109Z,81.14
2019-05-21T02:20:11.789Z,80.62
2019-05-21T02:22:41.300Z,80.13
2019-05-21T02:25:10.941Z,79.63
2019-05-21T02:27:41.491Z,79.23
2019-05-21T02:30:11.750Z,78.63
2019-05-21T02:32:41.241Z,78.36
2019-05-21T02:35:10.810Z,77.76
2019-05-21T02:37:40.324Z,78.34
2019-05-21T02:40:10.224Z,77.98
2019-05-21T02:42:39.693Z,78.10
2019-05-21T02:45:09.663Z,78.35
2019-05-21T02:47:39.174Z,77.72
2019-05-21T02:50:09.515Z,78.21
2019-05-21T02:52:39.019Z,78.81
2019-05-21T02:55:10.431Z,78.25
2019-05-21T02:57:41.278Z,78.11
2019-05-21T03:00:33.283Z,78.12
2019-05-21T03:03:03.102Z,78.80
2019-05-21T03:05:32.593Z,78.53
2019-05-21T03:08:02.208Z,78.37
2019-05-21T03:10:31.711Z,78.27
2019-05-21T03:13:01.296Z,78.73
2019-05-21T03:15:30.793Z,78.71
2019-05-21T03:18:00.304Z,78.62
2019-05-21T03:20:29.792Z,79.27
2019-05-21T03:22:59.303Z,80.95
2019-05-21T03:25:28.814Z,80.65
2019-05-21T03:27:58.383Z,80.67
2019-05-21T03:30:27.884Z,81.25
2019-05-21T03:32:58.366Z,80.89
2019-05-21T03:35:27.892Z,81.25
2019-05-21T03:37:57.469Z,80.38
2019-05-21T03:40:26.979Z,80.42
2019-05-21T03:42:56.482Z,80.03
2019-05-21T03:45:26.118Z,79.77
2019-05-21T03:47:55.591Z,79.94
2019-05-21T03:50:25.117Z,79.54
2019-05-21T03:52:54.655Z,80.41
2019-05-21T03:55:24.126Z,80.38
2019-05-21T03:57:53.655Z,80.70
2019-05-21T04:00:23.232Z,80.02
2019-05-21T04:02:52.761Z,79.57
2019-05-21T04:05:26.952Z,79.08
2019-05-21T04:07:56.597Z,78.27
2019-05-21T04:10:26.173Z,78.18
2019-05-21T04:13:08.669Z,77.63
2019-05-21T04:15:56.759Z,77.48
2019-05-21T04:18:31.418Z,77.73
2019-05-21T04:21:00.977Z,77.20
2019-05-21T04:23:30.462Z,77.30
2019-05-21T04:25:59.970Z,77.31
2019-05-21T04:28:29.491Z,77.54
2019-05-21T04:30:59.002Z,78.13
2019-05-21T04:33:28.503Z,77.49
2019-05-21T04:35:58.079Z,77.21
2019-05-21T04:38:27.678Z,77.36
2019-05-21T04:40:57.301Z,77.29
2019-05-21T04:43:26.815Z,77.11
2019-05-21T04:45:56.353Z,76.94
2019-05-21T04:48:25.856Z,76.81
2019-05-21T04:50:55.382Z,76.53
2019-05-21T04:53:24.892Z,76.61
2019-05-21T04:55:54.421Z,76.42
2019-05-21T04:58:23.958Z,76.45
2019-05-21T05:00:53.499Z,76.45
2019-05-21T05:03:22.991Z,76.44
2019-05-21T05:05:52.657Z,76.84
2019-05-21T05:08:22.169Z,76.65
2019-05-21T05:10:51.683Z,76.31
2019-05-21T05:13:21.184Z,76.23
2019-05-21T05:15:50.716Z,75.77
2019-05-21T05:18:20.217Z,75.14
2019-05-21T05:20:49.744Z,75.56
2019-05-21T05:23:19.325Z,75.46
2019-05-21T05:25:48.861Z,76.42
2019-05-21T05:28:18.394Z,76.80
2019-05-21T05:30:47.962Z,76.55
2019-05-21T05:33:17.446Z,76.35
2019-05-21T05:35:46.957Z,77.06
2019-05-21T05:38:16.483Z,77.23
2019-05-21T05:40:46.008Z,76.73
2019-05-21T05:43:15.535Z,76.93
2019-05-21T05:45:45.090Z,76.71
2019-05-21T05:48:15.708Z,76.44
2019-05-21T05:50:47.165Z,76.96
2019-05-21T05:53:17.099Z,76.82
2019-05-21T05:55:49.782Z,76.42
2019-05-21T05:58:19.466Z,76.03
2019-05-21T06:00:49.696Z,76.01
2019-05-21T06:03:19.248Z,75.81
2019-05-21T06:05:49.366Z,75.62
2019-05-21T06:08:18.955Z,75.72
2019-05-21T06:10:48.492Z,75.99
2019-05-21T06:13:18.798Z,75.51
2019-05-21T06:15:48.333Z,75.54
2019-05-21T06:18:17.858Z,75.98
2019-05-21T06:20:47.469Z,75.73
2019-05-21T06:23:17.018Z,75.87
2019-05-21T06:25:46.571Z,75.96
2019-05-21T06:28:16.119Z,76.06
2019-05-21T06:30:45.691Z,75.53
2019-05-21T06:33:15.240Z,75.47
2019-05-21T06:35:44.803Z,76.45
2019-05-21T06:38:18.035Z,76.00
2019-05-21T06:40:45.574Z,75.87
2019-05-21T06:43:15.586Z,75.61
2019-05-21T06:45:45.135Z,75.76
2019-05-21T06:48:14.659Z,75.33
2019-05-21T06:50:44.166Z,75.23
2019-05-21T06:53:13.742Z,75.31
2019-05-21T06:55:43.270Z,75.47
2019-05-21T06:58:12.783Z,75.45
2019-05-21T07:00:42.353Z,75.16
2019-05-21T07:03:11.888Z,75.11
2019-05-21T07:05:57.690Z,75.08
2019-05-21T07:08:12.642Z,74.93
2019-05-21T07:10:43.136Z,74.35
2019-05-21T07:13:12.696Z,75.19
2019-05-21T07:15:42.222Z,75.66
2019-05-21T07:18:11.759Z,75.53
2019-05-21T07:20:42.234Z,75.89
2019-05-21T07:23:11.759Z,75.56
2019-05-21T07:25:41.257Z,75.16
2019-05-21T07:28:10.868Z,74.80
2019-05-21T07:30:40.479Z,74.57
2019-05-21T07:33:10.088Z,74.10
2019-05-21T07:35:40.553Z,74.40
2019-05-21T07:38:10.100Z,73.79
2019-05-21T07:40:39.644Z,74.18
2019-05-21T07:43:09.173Z,74.18
2019-05-21T07:45:38.702Z,73.95
2019-05-21T07:48:08.253Z,74.26
2019-05-21T07:50:37.783Z,74.93
2019-05-21T07:53:07.332Z,74.95
2019-05-21T07:55:37.106Z,74.82
2019-05-21T07:58:06.645Z,74.73
2019-05-21T08:00:36.149Z,75.02
2019-05-21T08:03:05.692Z,74.57
2019-05-21T08:05:35.204Z,74.83
2019-05-21T08:08:04.939Z,74.26
2019-05-21T08:10:34.503Z,74.31
2019-05-21T08:13:04.045Z,74.44
2019-05-21T08:15:33.543Z,74.64
2019-05-21T08:18:03.110Z,75.10
2019-05-21T08:20:32.695Z,75.96
2019-05-21T08:23:02.230Z,75.83
2019-05-21T08:25:31.771Z,75.76
2019-05-21T08:28:02.286Z,75.59
2019-05-21T08:30:31.821Z,75.62
2019-05-21T08:33:01.351Z,75.38
2019-05-21T08:35:30.872Z,75.37
2019-05-21T08:38:00.376Z,75.07
2019-05-21T08:40:30.071Z,75.36
2019-05-21T08:42:59.607Z,74.51
2019-05-21T08:45:29.143Z,74.97
2019-05-21T08:47:58.700Z,75.04
2019-05-21T08:50:28.251Z,75.24
2019-05-21T08:52:57.772Z,75.11
2019-05-21T08:55:27.277Z,75.03
2019-05-21T08:58:07.104Z,75.63
2019-05-21T09:00:29.205Z,76.22
2019-05-21T09:02:58.744Z,76.33
2019-05-21T09:05:28.276Z,76.45
2019-05-21T09:07:57.893Z,76.21
2019-05-21T09:10:28.362Z,75.95
2019-05-21T09:12:57.925Z,75.69
2019-05-21T09:15:28.426Z,75.63
2019-05-21T09:17:57.954Z,75.68
2019-05-21T09:20:27.520Z,76.13
2019-05-21T09:22:57.244Z,76.29
2019-05-21T09:25:26.749Z,75.99
2019-05-21T09:27:56.263Z,76.05
2019-05-21T09:30:25.814Z,75.93
2019-05-21T09:32:55.335Z,75.63
2019-05-21T09:35:24.862Z,75.68
2019-05-21T09:37:57.160Z,76.08
2019-05-21T09:40:27.839Z,75.99
2019-05-21T09:42:57.354Z,75.92
2019-05-21T09:45:27.133Z,75.54
2019-05-21T09:47:56.666Z,75.40
2019-05-21T09:50:26.252Z,75.39
2019-05-21T09:52:55.817Z,76.15
2019-05-21T09:55:26.302Z,75.93
2019-05-21T09:58:02.527Z,75.74
2019-05-21T10:00:50.173Z,76.00
2019-05-21T10:03:21.722Z,75.40
2019-05-21T10:05:51.262Z,75.56
2019-05-21T10:08:20.799Z,75.58
2019-05-21T10:10:51.477Z,74.90
2019-05-21T10:13:21.038Z,74.90
2019-05-21T10:15:50.546Z,75.49
2019-05-21T10:18:20.094Z,76.14
2019-05-21T10:20:50.660Z,75.85
2019-05-21T10:23:20.196Z,76.01
2019-05-21T10:25:49.743Z,76.32
2019-05-21T10:28:19.414Z,76.30
2019-05-21T10:30:48.959Z,76.14
2019-05-21T10:33:18.485Z,76.04
2019-05-21T10:35:48.024Z,75.82
2019-05-21T10:38:17.543Z,75.89
2019-05-21T10:40:47.830Z,75.85
2019-05-21T10:43:17.339Z,75.82
2019-05-21T10:45:48.028Z,75.79
2019-05-21T10:48:17.537Z,76.20
2019-05-21T10:50:47.075Z,75.98
2019-05-21T10:53:16.587Z,75.64
2019-05-21T10:55:46.099Z,75.68
2019-05-21T10:58:15.630Z,75.79
2019-05-21T11:00:46.850Z,75.24
2019-05-21T11:03:20.041Z,75.24
2019-05-21T11:06:07.406Z,75.33
2019-05-21T11:08:25.063Z,75.32
2019-05-21T11:10:54.647Z,75.17
2019-05-21T11:13:24.192Z,74.54
2019-05-21T11:15:53.717Z,74.65
2019-05-21T11:18:23.236Z,74.81
2019-05-21T11:20:53.757Z,75.05
2019-05-21T11:23:26.247Z,75.00
2019-05-21T11:26:01.496Z,74.92
2019-05-21T11:28:31.077Z,75.55
2019-05-21T11:31:00.609Z,75.12
2019-05-21T11:33:30.113Z,75.62
2019-05-21T11:35:59.677Z,75.63
2019-05-21T11:38:39.413Z,75.14
2019-05-21T11:41:01.709Z,74.63
2019-05-21T11:43:31.209Z,74.99
2019-05-21T11:46:02.979Z,74.92
2019-05-21T11:48:31.949Z,74.63
2019-05-21T11:51:01.457Z,75.34
2019-05-21T11:53:32.034Z,75.58
2019-05-21T11:56:01.846Z,75.25
2019-05-21T11:58:31.417Z,74.79
2019-05-21T12:01:00.952Z,75.51
2019-05-21T12:03:31.161Z,75.50
2019-05-21T12:06:00.703Z,75.54
2019-05-21T12:08:30.612Z,75.71
2019-05-21T12:11:00.156Z,75.70
2019-05-21T12:13:29.705Z,75.64
2019-05-21T12:15:59.240Z,75.10
2019-05-21T12:18:28.777Z,74.84
2019-05-21T12:20:58.305Z,75.88
2019-05-21T12:23:27.839Z,76.12
2019-05-21T12:25:57.385Z,76.35
2019-05-21T12:28:26.923Z,77.52
2019-05-21T12:30:56.552Z,77.03
2019-05-21T12:33:26.087Z,76.39
2019-05-21T12:35:55.704Z,76.29
2019-05-21T12:38:25.219Z,76.46
2019-05-21T12:40:54.757Z,75.97
2019-05-21T12:43:24.370Z,75.64
2019-05-21T12:45:53.940Z,75.77
2019-05-21T12:48:23.481Z,75.93
2019-05-21T12:50:53.003Z,76.33
2019-05-21T12:53:22.506Z,76.33
2019-05-21T12:55:52.098Z,76.65
2019-05-21T12:58:21.697Z,75.72
2019-05-21T13:00:51.215Z,75.64
2019-05-21T13:03:20.753Z,75.29
2019-05-21T13:05:50.297Z,75.62
2019-05-21T13:08:19.833Z,75.63
2019-05-21T13:10:49.508Z,76.52
2019-05-21T13:13:19.034Z,76.30
2019-05-21T13:15:48.772Z,76.71
2019-05-21T13:18:18.273Z,76.86
2019-05-21T13:20:50.105Z,76.86
2019-05-21T13:23:19.612Z,76.34
2019-05-21T13:25:49.148Z,76.85
2019-05-21T13:28:18.671Z,77.13
2019-05-21T13:30:48.397Z,76.71
2019-05-21T13:33:19.606Z,76.83
2019-05-21T13:35:49.261Z,76.39
2019-05-21T13:38:18.790Z,76.50
2019-05-21T13:40:48.571Z,76.56
2019-05-21T13:43:21.239Z,76.46
2019-05-21T13:45:49.325Z,76.00
2019-05-21T13:48:18.878Z,76.12
2019-05-21T13:50:48.428Z,76.28
2019-05-21T13:53:17.948Z,75.91
2019-05-21T13:55:47.486Z,76.20
2019-05-21T13:58:17.033Z,76.10
2019-05-21T14:00:49.085Z,76.04
2019-05-21T14:03:18.640Z,76.18
2019-05-21T14:05:48.166Z,76.07
2019-05-21T14:08:17.692Z,76.44
2019-05-21T14:10:47.495Z,76.25
2019-05-21T14:13:17.077Z,76.52
2019-05-21T14:15:47.655Z,76.72
2019-05-21T14:18:17.160Z,76.40
2019-05-21T14:20:46.758Z,76.22
2019-05-21T14:23:16.298Z,76.27
2019-05-21T14:25:45.818Z,76.03
2019-05-21T14:28:15.325Z,75.74
2019-05-21T14:30:45.269Z,75.38
2019-05-21T14:33:14.996Z,75.16
2019-05-21T14:35:44.532Z,75.39
2019-05-21T14:38:14.042Z,75.25
2019-05-21T14:40:43.558Z,75.12
2019-05-21T14:43:13.086Z,74.52
2019-05-21T14:45:42.623Z,74.41
2019-05-21T14:48:12.154Z,74.80
2019-05-21T14:50:41.713Z,73.66
2019-05-21T14:53:11.373Z,73.94
2019-05-21T14:55:41.902Z,73.77
2019-05-21T14:58:12.420Z,73.38
2019-05-21T15:00:42.030Z,73.59
2019-05-21T15:03:24.168Z,73.94
2019-05-21T15:05:42.781Z,73.71
2019-05-21T15:08:12.376Z,74.20
2019-05-21T15:10:48.647Z,74.10
2019-05-21T15:13:13.142Z,74.69
2019-05-21T15:15:42.750Z,74.19
2019-05-21T15:18:19.542Z,74.12
2019-05-21T15:20:59.292Z,73.88
2019-05-21T15:23:36.374Z,74.55
2019-05-21T15:26:05.975Z,74.28
2019-05-21T15:28:35.557Z,73.67
2019-05-21T15:31:05.156Z,73.82
2019-05-21T15:33:34.698Z,73.67
2019-05-21T15:36:04.304Z,73.53
2019-05-21T15:38:48.482Z,73.23
2019-05-21T15:41:11.952Z,73.54
2019-05-21T15:43:36.432Z,73.35
2019-05-21T15:46:06.063Z,73.45
2019-05-21T15:48:35.582Z,73.60
2019-05-21T15:51:05.265Z,73.02
2019-05-21T15:53:34.803Z,72.75
2019-05-21T15:56:04.315Z,72.52
2019-05-21T15:58:33.847Z,71.82
2019-05-21T16:01:04.044Z,71.69
2019-05-21T16:03:33.633Z,72.04
2019-05-21T16:06:03.256Z,72.31
2019-05-21T16:08:32.793Z,71.58
2019-05-21T16:11:02.316Z,71.47
2019-05-21T16:13:31.872Z,71.89
2019-05-21T16:16:01.409Z,71.72
2019-05-21T16:18:30.933Z,71.39
2019-05-21T16:21:00.472Z,70.05
2019-05-21T16:23:31.007Z,70.33
2019-05-21T16:26:00.605Z,70.60
2019-05-21T16:28:30.185Z,70.33
2019-05-21T16:31:00.428Z,70.46
2019-05-21T16:33:30.010Z,70.78
2019-05-21T16:35:59.541Z,70.90
2019-05-21T16:38:29.176Z,71.08
2019-05-21T16:40:58.901Z,70.24
2019-05-21T16:43:28.583Z,70.44
2019-05-21T16:45:58.115Z,70.31
2019-05-21T16:48:27.645Z,70.32
2019-05-21T16:50:57.156Z,70.35
2019-05-21T16:53:26.718Z,70.14
2019-05-21T16:55:56.265Z,70.31
2019-05-21T16:58:25.759Z,70.46
2019-05-21T17:00:56.148Z,70.26
2019-05-21T17:03:25.662Z,70.39
2019-05-21T17:05:55.250Z,70.27
2019-05-21T17:08:24.785Z,70.26
2019-05-21T17:10:54.395Z,70.06
2019-05-21T17:13:23.929Z,70.45
2019-05-21T17:15:53.487Z,70.29
2019-05-21T17:18:23.025Z,70.54
2019-05-21T17:20:52.656Z,70.50
2019-05-21T17:23:23.404Z,70.57
2019-05-21T17:25:52.938Z,70.19
2019-05-21T17:28:22.445Z,69.77
2019-05-21T17:30:51.951Z,70.18
2019-05-21T17:33:21.463Z,69.99
2019-05-21T17:35:50.987Z,70.03
2019-05-21T17:38:20.506Z,69.47
2019-05-21T17:40:50.028Z,68.15
2019-05-21T17:43:19.630Z,67.80
2019-05-21T17:45:49.138Z,67.75
2019-05-21T17:48:18.653Z,67.26
2019-05-21T17:50:48.182Z,67.35
2019-05-21T17:53:17.760Z,66.55
2019-05-21T17:55:47.310Z,66.54
2019-05-21T17:58:17.793Z,66.53
2019-05-21T18:00:50.489Z,66.38
2019-05-21T18:03:19.991Z,66.83
2019-05-21T18:05:49.742Z,66.77
2019-05-21T18:08:19.981Z,67.01
2019-05-21T18:10:49.971Z,65.66
2019-05-21T18:13:20.825Z,66.33
2019-05-21T18:15:50.375Z,66.08
2019-05-21T18:18:19.889Z,65.79
2019-05-21T18:20:50.113Z,65.23
2019-05-21T18:23:19.625Z,66.40
2019-05-21T18:25:49.230Z,66.35
2019-05-21T18:28:19.743Z,66.49
2019-05-21T18:30:49.345Z,66.51
2019-05-21T18:33:18.887Z,66.63
2019-05-21T18:35:48.409Z,65.86
2019-05-21T18:38:18.015Z,66.35
2019-05-21T18:40:47.517Z,66.30
2019-05-21T18:43:17.052Z,66.75
2019-05-21T18:45:46.746Z,66.23
2019-05-21T18:48:16.653Z,66.84
2019-05-21T18:50:46.192Z,65.69
2019-05-21T18:53:15.908Z,64.64
2019-05-21T18:55:45.435Z,65.41
2019-05-21T18:58:17.220Z,65.40
2019-05-21T19:00:47.333Z,65.93
2019-05-21T19:03:25.363Z,66.25
2019-05-21T19:05:48.071Z,66.79
2019-05-21T19:08:17.707Z,66.99
2019-05-21T19:10:47.251Z,67.26
2019-05-21T19:13:16.818Z,67.14
2019-05-21T19:15:46.428Z,67.32
2019-05-21T19:18:16.696Z,67.26
2019-05-21T19:20:49.954Z,67.50
2019-05-21T19:23:19.222Z,67.45
2019-05-21T19:25:48.837Z,67.17
2019-05-21T19:28:18.380Z,67.04
2019-05-21T19:30:47.922Z,66.68
2019-05-21T19:33:17.529Z,66.32
2019-05-21T19:35:47.046Z,66.04
2019-05-21T19:38:16.754Z,66.49
2019-05-21T19:40:46.360Z,66.65
2019-05-21T19:43:15.963Z,66.42
2019-05-21T19:45:45.500Z,66.40
2019-05-21T19:48:15.034Z,66.78
2019-05-21T19:50:44.891Z,66.56
2019-05-21T19:53:14.993Z,66.49
2019-05-21T19:55:45.545Z,66.34
2019-05-21T19:58:15.061Z,66.25
2019-05-21T20:00:52.114Z,66.25
2019-05-21T20:03:22.207Z,66.30
2019-05-21T20:05:51.817Z,66.76
2019-05-21T20:08:21.389Z,67.35
2019-05-21T20:10:51.120Z,67.21
2019-05-21T20:13:31.841Z,67.50
2019-05-21T20:15:52.219Z,67.33
2019-05-21T20:18:23.413Z,67.54
2019-05-21T20:20:53.085Z,67.01
2019-05-21T20:23:24.228Z,67.90
2019-05-21T20:25:56.876Z,67.72
2019-05-21T20:28:25.375Z,67.83
2019-05-21T20:30:55.666Z,68.03
2019-05-21T20:33:26.075Z,67.93
2019-05-21T20:35:57.711Z,68.17
2019-05-21T20:38:29.291Z,68.13
2019-05-21T20:40:59.892Z,68.34
2019-05-21T20:43:30.495Z,67.87
2019-05-21T20:46:00.243Z,67.83
2019-05-21T20:48:32.060Z,67.80
2019-05-21T20:51:04.471Z,67.83
2019-05-21T20:53:34.012Z,67.95
2019-05-21T20:56:04.601Z,67.68
2019-05-21T20:58:35.292Z,67.66
2019-05-21T21:01:06.238Z,67.44
2019-05-21T21:03:36.027Z,67.74
2019-05-21T21:06:06.322Z,68.15
2019-05-21T21:08:37.594Z,68.08
2019-05-21T21:11:08.989Z,68.01
2019-05-21T21:13:38.959Z,68.01
2019-05-21T21:16:09.600Z,68.22
2019-05-21T21:18:39.756Z,68.45
2019-05-21T21:21:09.315Z,68.61
2019-05-21T21:23:40.452Z,68.83
2019-05-21T21:26:10.344Z,68.87
2019-05-21T21:28:40.071Z,69.08
2019-05-21T21:31:09.594Z,69.18
2019-05-21T21:33:39.126Z,69.13
2019-05-21T21:36:08.690Z,69.20
2019-05-21T21:38:38.864Z,69.22
2019-05-21T21:41:08.826Z,69.34
2019-05-21T21:43:38.369Z,69.75
2019-05-21T21:46:07.958Z,69.61
2019-05-21T21:48:37.896Z,69.43
2019-05-21T21:51:07.929Z,69.22
2019-05-21T21:53:39.154Z,69.07
2019-05-21T21:56:08.750Z,68.83
2019-05-21T21:58:38.278Z,68.47
2019-05-21T22:01:52.187Z,68.66
2019-05-21T22:04:25.344Z,68.77
2019-05-21T22:06:55.816Z,68.66
2019-05-21T22:09:29.781Z,68.67
2019-05-21T22:12:00.029Z,68.68
2019-05-21T22:14:30.232Z,68.84
2019-05-21T22:17:00.135Z,69.50
2019-05-21T22:19:30.123Z,69.48
2019-05-21T22:21:59.720Z,69.13
2019-05-21T22:24:29.623Z,69.47
2019-05-21T22:26:59.308Z,69.16
2019-05-21T22:29:28.896Z,68.99
2019-05-21T22:31:58.497Z,69.32
2019-05-21T22:34:28.579Z,68.95
2019-05-21T22:36:58.408Z,68.96
2019-05-21T22:39:30.807Z,69.14
2019-05-21T22:42:00.405Z,69.17
2019-05-21T22:44:30.406Z,68.91
2019-05-21T22:47:00.240Z,69.25
2019-05-21T22:49:33.836Z,69.51
2019-05-21T22:52:01.417Z,69.83
2019-05-21T22:54:31.014Z,69.40
2019-05-21T22:57:01.492Z,69.72
2019-05-21T22:59:31.004Z,69.98
2019-05-21T23:02:02.773Z,69.55
2019-05-21T23:04:32.357Z,69.34
2019-05-21T23:07:04.571Z,68.88
2019-05-21T23:09:34.173Z,68.96
2019-05-21T23:12:03.759Z,68.60
2019-05-21T23:14:33.351Z,68.71
2019-05-21T23:17:06.988Z,68.42
2019-05-21T23:19:41.499Z,68.15
2019-05-21T23:22:14.183Z,68.36
2019-05-21T23:24:43.719Z,68.16
2019-05-21T23:27:14.883Z,68.52
2019-05-21T23:29:44.495Z,68.92
2019-05-21T23:32:14.012Z,68.37
2019-05-21T23:34:44.265Z,69.04
2019-05-21T23:37:18.233Z,69.06
2019-05-21T23:39:49.619Z,68.97
2019-05-21T23:42:28.956Z,68.71
2019-05-21T23:44:50.719Z,68.52
2019-05-21T23:47:20.608Z,68.80
2019-05-21T23:49:50.153Z,69.47
2019-05-21T23:52:20.098Z,69.40
2019-05-21T23:54:49.649Z,69.78
2019-05-21T23:57:20.802Z,69.57
2019-05-21T23:59:51.163Z,69.73
